Time;durP1;ratioP1;P1;durP2;ratioP2;P2;SDS_P1;SDS_P2;PMS_P1;PMS_P2;Temp;Humidity;BMP_temperature;BMP_pressure;BME280_temperature;BME280_humidity;BME280_pressure;Samples;Min_cycle;Max_cycle;Signal;HPM_P1;HPM_P2
2022/10/29 00:00:53;;;;;;;8.50;4.75;;;15.30;82.00;;;14.04;100.00;96807.94;4884896;28;20368;-69
2022/10/29 00:03:19;;;;;;;10.32;5.55;;;15.20;81.60;;;14.02;100.00;96807.28;4889836;28;20423;-69
2022/10/29 00:05:55;;;;;;;10.27;4.90;;;15.10;81.60;;;13.99;100.00;96812.13;4874210;28;20220;-70
2022/10/29 00:08:21;;;;;;;12.00;5.10;;;15.10;81.70;;;13.93;100.00;96802.34;4884903;28;20412;-69
2022/10/29 00:10:47;;;;;;;9.10;4.93;;;15.10;81.80;;;13.89;100.00;96793.97;4871261;28;20524;-69
2022/10/29 00:13:14;;;;;;;8.07;4.75;;;15.10;82.00;;;13.88;100.00;96800.28;4883761;28;20762;-69
2022/10/29 00:15:40;;;;;;;9.35;5.55;;;15.10;82.20;;;13.87;100.00;96800.47;4866955;28;20527;-69
2022/10/29 00:18:06;;;;;;;8.70;4.72;;;15.10;83.10;;;13.84;100.00;96806.97;4875548;28;20549;-69
2022/10/29 00:20:32;;;;;;;8.35;5.20;;;15.10;82.40;;;13.85;100.00;96811.25;4861473;28;20686;-69
2022/10/29 00:22:58;;;;;;;9.15;4.60;;;15.10;82.20;;;13.84;100.00;96801.69;4884487;28;20371;-69
2022/10/29 00:25:24;;;;;;;9.63;4.95;;;15.00;82.10;;;13.80;100.00;96797.75;4870109;28;20573;-69
2022/10/29 00:27:50;;;;;;;6.82;4.57;;;15.00;82.10;;;13.78;100.00;96797.94;4857173;28;20544;-69
2022/10/29 00:30:17;;;;;;;11.77;5.00;;;15.00;82.10;;;13.76;100.00;96802.63;4848282;28;20443;-69
2022/10/29 00:32:43;;;;;;;14.82;4.97;;;15.00;82.00;;;13.75;100.00;96802.81;4867007;28;20554;-69
2022/10/29 00:35:09;;;;;;;10.23;5.30;;;15.00;82.30;;;13.72;100.00;96798.72;4850183;28;20619;-69
2022/10/29 00:37:35;;;;;;;9.65;4.55;;;15.00;82.20;;;13.71;100.00;96804.19;4852427;28;20415;-69
2022/10/29 00:40:01;;;;;;;9.00;4.65;;;14.90;82.00;;;13.69;100.00;96796.47;4858152;28;20351;-66
2022/10/29 00:42:27;;;;;;;8.10;4.47;;;14.90;81.90;;;13.66;100.00;96798.69;4875040;28;20383;-66
2022/10/29 00:44:53;;;;;;;8.25;4.60;;;14.90;82.00;;;13.67;100.00;96797.66;4856716;28;20502;-66
2022/10/29 00:47:30;;;;;;;8.23;4.13;;;14.90;81.90;;;13.67;100.00;96801.13;4869330;28;20561;-66
2022/10/29 00:50:07;;;;;;;10.38;4.43;;;14.90;82.20;;;13.68;100.00;96801.94;4867646;28;20408;-67
2022/10/29 00:52:33;;;;;;;9.20;4.50;;;14.90;82.80;;;13.67;100.00;96797.66;4850697;28;20412;-70
2022/10/29 00:55:05;;;;;;;8.55;4.18;;;14.90;82.40;;;13.66;100.00;96809.25;4887070;28;20604;-69
2022/10/29 00:57:36;;;;;;;9.10;4.63;;;14.90;82.90;;;13.64;100.00;96821.84;4855919;28;20392;-69
2022/10/29 01:00:02;;;;;;;;;;;14.90;82.90;;;13.60;100.00;96812.66;4873212;28;20458;-69
2022/10/29 01:02:28;;;;;;;11.20;6.10;;;14.80;83.40;;;13.57;100.00;96805.09;4871352;28;20114;-69
2022/10/29 01:04:54;;;;;;;10.10;5.50;;;14.80;83.90;;;13.51;100.00;96809.31;4856182;28;20537;-69
2022/10/29 01:07:20;;;;;;;8.90;5.20;;;14.80;83.50;;;13.53;100.00;96815.22;4856081;28;20338;-68
2022/10/29 01:09:46;;;;;;;9.32;5.57;;;14.80;83.60;;;13.53;100.00;96817.06;4869407;28;20357;-67
2022/10/29 01:12:32;;;;;;;9.38;4.97;;;14.70;83.60;;;13.52;100.00;96813.59;4871151;28;20349;-67
2022/10/29 01:15:43;;;;;;;10.15;5.50;;;14.70;83.90;;;13.48;100.00;96817.63;4884655;28;20318;-67
2022/10/29 01:18:40;;;;;;;12.30;5.07;;;14.60;83.70;;;13.44;100.00;96817.19;4878398;28;20630;-67
2022/10/29 01:21:34;;;;;;;9.85;4.93;;;14.60;83.70;;;13.42;100.00;96819.22;4890093;28;20331;-67
2022/10/29 01:24:13;;;;;;;10.40;5.75;;;14.60;83.60;;;13.37;100.00;96818.97;4893622;28;20618;-67
2022/10/29 01:28:11;;;;;;;9.25;5.22;;;14.60;84.00;;;13.34;100.00;96811.38;4913215;28;20512;-66
2022/10/29 01:31:10;;;;;;;13.05;5.03;;;14.60;83.40;;;13.30;100.00;96812.78;4769559;29;20490;-67
2022/10/29 01:33:54;;;;;;;10.55;5.32;;;14.50;83.70;;;13.27;100.00;96810.50;4817142;28;20453;-67
2022/10/29 01:36:40;;;;;;;8.05;5.22;;;14.50;83.60;;;13.27;100.00;96809.69;4902006;28;20251;-68
2022/10/29 01:39:30;;;;;;;7.72;4.70;;;14.50;83.50;;;13.22;100.00;96802.34;4868987;28;20427;-68
2022/10/29 01:42:22;;;;;;;8.80;4.85;;;14.50;83.20;;;13.23;100.00;96793.41;4890862;28;20559;-68
2022/10/29 01:45:13;;;;;;;8.90;4.72;;;14.50;83.10;;;13.22;100.00;96796.25;4889899;28;20483;-68
2022/10/29 01:47:46;;;;;;;8.00;4.03;;;14.50;82.90;;;13.18;100.00;96790.53;4869729;28;20522;-68
2022/10/29 01:50:15;;;;;;;6.72;3.63;;;14.50;82.80;;;13.17;100.00;96788.84;4864634;28;20372;-68
2022/10/29 01:52:41;;;;;;;9.68;3.60;;;14.40;82.80;;;13.14;100.00;96791.88;4857202;28;20319;-68
2022/10/29 01:55:08;;;;;;;8.77;4.00;;;14.40;83.00;;;13.15;100.00;96796.97;4857763;28;20395;-68
2022/10/29 01:57:36;;;;;;;8.20;3.40;;;14.40;82.70;;;13.17;100.00;96799.41;4855988;28;20224;-68
2022/10/29 02:00:14;;;;;;;9.98;3.78;;;14.40;82.60;;;13.18;100.00;96793.16;4853525;28;20189;-68
2022/10/29 02:03:07;;;;;;;7.82;3.78;;;14.50;82.50;;;13.20;100.00;96785.88;4873302;28;20790;-68
2022/10/29 02:05:57;;;;;;;9.85;3.38;;;14.50;82.20;;;13.21;100.00;96786.69;4912214;28;20336;-67
2022/10/29 02:08:32;;;;;;;12.40;4.10;;;14.50;82.10;;;13.21;100.00;96790.13;4908668;28;20322;-68
2022/10/29 02:11:21;;;;;;;7.97;3.72;;;14.50;82.20;;;13.21;100.00;96795.41;4949732;28;20076;-67
2022/10/29 02:14:14;;;;;;;6.75;3.30;;;14.50;82.30;;;13.22;100.00;96801.53;4935564;28;20442;-69
2022/10/29 02:16:40;;;;;;;9.05;3.58;;;14.50;82.10;;;13.20;100.00;96793.78;4956515;28;20135;-67
2022/10/29 02:19:06;;;;;;;8.40;3.50;;;14.40;82.00;;;13.16;100.00;96797.78;4926436;28;20074;-67
2022/10/29 02:21:32;;;;;;;7.53;3.63;;;14.30;82.20;;;13.14;100.00;96799.81;4898647;28;20255;-66
2022/10/29 02:23:58;;;;;;;8.85;3.28;;;14.30;81.80;;;13.15;100.00;96806.72;4869945;28;20487;-67
2022/10/29 02:26:24;;;;;;;7.07;3.20;;;14.40;82.00;;;13.15;100.00;96796.16;4870070;28;20396;-67
2022/10/29 02:28:50;;;;;;;5.78;3.45;;;14.40;82.00;;;13.14;100.00;96794.50;4927770;28;20292;-66
2022/10/29 02:31:15;;;;;;;6.18;3.28;;;14.40;82.10;;;13.15;100.00;96796.16;4914704;28;20107;-67
2022/10/29 02:33:42;;;;;;;7.35;3.60;;;14.40;82.10;;;13.12;100.00;96789.38;4929218;28;20450;-68
2022/10/29 02:36:08;;;;;;;8.48;3.90;;;14.40;81.90;;;13.13;100.00;96787.59;4872698;28;20747;-69
2022/10/29 02:38:34;;;;;;;6.90;3.38;;;14.40;81.80;;;13.13;100.00;96792.88;4848800;28;20369;-66
2022/10/29 02:41:00;;;;;;;8.52;3.50;;;14.40;81.70;;;13.12;100.00;96785.94;4864441;28;20391;-70
2022/10/29 02:43:26;;;;;;;9.75;4.13;;;14.40;81.80;;;13.10;100.00;96783.47;4879107;28;20362;-73
2022/10/29 02:46:11;;;;;;;9.18;3.78;;;14.40;81.70;;;13.09;100.00;96778.38;4848384;28;20212;-68
2022/10/29 02:48:36;;;;;;;8.52;3.50;;;14.40;81.60;;;13.07;100.00;96773.28;4890141;28;20494;-68
2022/10/29 02:51:02;;;;;;;14.00;3.35;;;14.40;80.80;;;13.09;100.00;96767.81;4894251;28;20419;-68
2022/10/29 02:53:28;;;;;;;10.27;3.55;;;14.40;80.50;;;13.11;100.00;96757.88;4889680;28;20599;-67
2022/10/29 02:55:55;;;;;;;9.27;3.58;;;14.40;80.10;;;13.13;100.00;96761.19;4880382;28;20385;-68
2022/10/29 02:58:21;;;;;;;13.43;3.90;;;14.40;79.90;;;13.13;100.00;96761.19;4872860;28;20403;-68
2022/10/29 03:00:51;;;;;;;7.82;3.60;;;14.50;80.70;;;13.14;100.00;96768.09;4920603;28;20335;-67
2022/10/29 03:03:16;;;;;;;10.55;3.22;;;14.40;80.90;;;13.12;100.00;96775.38;4896881;28;20328;-67
2022/10/29 03:05:42;;;;;;;9.70;3.40;;;14.40;81.10;;;13.09;100.00;96771.28;4928949;28;20265;-67
2022/10/29 03:08:09;;;;;;;6.53;3.40;;;14.40;81.00;;;13.10;100.00;96766.81;4880264;28;20370;-67
2022/10/29 03:10:35;;;;;;;10.07;3.42;;;14.40;80.80;;;13.10;100.00;96772.09;4859753;28;20119;-67
2022/10/29 03:13:01;;;;;;;5.75;3.03;;;14.40;80.90;;;13.08;100.00;96768.81;4880504;28;20363;-67
2022/10/29 03:15:27;;;;;;;9.13;3.38;;;14.40;81.00;;;13.05;100.00;96761.28;4891266;28;20516;-68
2022/10/29 03:17:53;;;;;;;8.23;3.47;;;14.30;81.10;;;13.03;100.00;96769.41;4885044;28;20372;-67
2022/10/29 03:20:19;;;;;;;4.72;2.88;;;14.40;80.70;;;13.02;100.00;96766.94;4850372;28;20375;-67
2022/10/29 03:22:45;;;;;;;7.65;3.38;;;14.30;80.80;;;12.99;100.00;96764.69;4853829;28;20419;-67
2022/10/29 03:25:11;;;;;;;13.30;3.63;;;14.30;81.00;;;13.00;100.00;96774.25;4867636;28;20500;-67
2022/10/29 03:27:43;;;;;;;8.75;3.05;;;14.30;80.50;;;13.00;100.00;96771.59;4871307;28;20325;-67
2022/10/29 03:30:14;;;;;;;8.60;3.67;;;14.30;80.00;;;12.98;100.00;96773.63;4897206;23;20395;-71
2022/10/29 03:32:41;;;;;;;;;;;14.20;80.00;;;12.96;100.00;96770.34;4904181;28;20707;-72
2022/10/29 03:35:08;;;;;;;9.02;3.15;;;14.30;80.10;;;12.94;100.00;96769.72;4871501;28;20442;-72
2022/10/29 03:37:34;;;;;;;9.07;3.25;;;14.20;79.60;;;12.93;100.00;96771.53;4877535;28;20419;-70
2022/10/29 03:40:00;;;;;;;8.00;3.22;;;14.20;79.80;;;12.93;100.00;96771.53;4856393;28;20349;-73
2022/10/29 03:42:26;;;;;;;10.95;3.25;;;14.20;80.20;;;12.93;100.00;96771.53;4900441;28;20355;-73
2022/10/29 03:44:52;;;;;;;9.15;3.42;;;14.20;80.20;;;12.93;100.00;96773.38;4879949;28;20335;-66
2022/10/29 03:47:18;;;;;;;8.23;3.22;;;14.20;79.80;;;12.93;100.00;96770.72;4847802;28;20293;-68
2022/10/29 03:49:44;;;;;;;9.25;3.30;;;14.20;79.60;;;12.92;100.00;96758.53;4872365;28;20713;-70
2022/10/29 03:52:11;;;;;;;8.82;3.63;;;14.20;79.30;;;12.91;100.00;96762.16;4833217;28;20305;-71
2022/10/29 03:54:37;;;;;;;7.88;2.97;;;14.20;79.00;;;12.91;100.00;96756.88;4834004;28;20731;-67
2022/10/29 03:57:03;;;;;;;11.23;3.13;;;14.20;79.20;;;12.93;100.00;96760.16;4847964;28;20338;-72
2022/10/29 03:59:29;;;;;;;6.68;3.05;;;14.30;79.40;;;12.95;100.00;96766.06;4899225;28;20400;-72
2022/10/29 04:01:55;;;;;;;7.78;3.00;;;14.30;80.40;;;12.96;100.00;96765.06;4895523;28;20405;-72
2022/10/29 04:04:21;;;;;;;10.15;3.00;;;14.30;80.30;;;12.97;100.00;96769.34;4871355;28;20579;-70
2022/10/29 04:06:47;;;;;;;8.65;3.25;;;14.30;79.80;;;13.00;100.00;96776.88;4894025;28;20453;-69
2022/10/29 04:09:13;;;;;;;5.70;2.50;;;14.40;79.80;;;13.03;100.00;96781.78;4864867;28;20724;-66
2022/10/29 04:11:39;;;;;;;9.00;3.22;;;14.40;79.50;;;13.05;100.00;96790.34;4888933;28;20429;-66
2022/10/29 04:14:06;;;;;;;11.20;3.58;;;14.40;79.70;;;13.04;100.00;96784.25;4856767;28;20431;-66
2022/10/29 04:16:32;;;;;;;10.68;3.20;;;14.40;80.50;;;13.05;100.00;96785.06;4873417;28;20255;-67
2022/10/29 04:18:58;;;;;;;9.30;2.95;;;14.40;80.40;;;13.05;100.00;96775.31;4838822;28;20351;-67
2022/10/29 04:21:24;;;;;;;7.30;2.85;;;14.40;80.40;;;13.07;100.00;96773.28;4888852;28;20821;-65
2022/10/29 04:23:50;;;;;;;9.05;3.25;;;14.40;80.10;;;13.06;100.00;96774.31;4854366;28;20413;-69
2022/10/29 04:26:16;;;;;;;7.32;2.78;;;14.40;80.20;;;13.07;100.00;96770.66;4852474;28;20365;-69
2022/10/29 04:28:43;;;;;;;38.55;22.17;;;14.50;79.90;;;13.09;100.00;96767.81;4849324;28;20313;-66
2022/10/29 04:31:12;;;;;;;48.10;34.95;;;14.50;80.60;;;13.10;100.00;96766.81;4867972;28;20701;-70
2022/10/29 04:33:38;;;;;;;21.48;16.13;;;14.50;80.90;;;13.09;100.00;96771.28;4881202;28;20042;-69
2022/10/29 04:36:05;;;;;;;60.75;42.08;;;14.50;80.40;;;13.11;100.00;96769.28;4849016;28;20272;-70
2022/10/29 04:38:31;;;;;;;28.80;19.02;;;14.50;80.50;;;13.11;100.00;96768.44;4894903;28;20205;-72
2022/10/29 04:40:59;;;;;;;13.30;6.25;;;14.50;80.40;;;13.12;100.00;96767.44;4875734;28;20227;-70
2022/10/29 04:43:26;;;;;;;7.97;3.78;;;14.50;80.60;;;13.11;100.00;96765.81;4888838;28;20388;-70
2022/10/29 04:45:53;;;;;;;9.95;3.13;;;14.50;80.40;;;13.12;100.00;96775.38;4909238;28;20456;-70
2022/10/29 04:48:19;;;;;;;6.97;2.97;;;14.50;80.50;;;13.08;100.00;96764.38;4870034;28;20374;-69
2022/10/29 04:50:45;;;;;;;7.03;3.20;;;14.40;80.60;;;13.06;100.00;96765.56;4869610;28;20441;-70
2022/10/29 04:53:11;;;;;;;6.55;2.70;;;14.50;80.40;;;13.04;100.00;96762.28;4854964;28;20420;-71
2022/10/29 04:55:38;;;;;;;9.25;3.13;;;14.40;80.00;;;13.02;100.00;96753.75;4856814;28;20287;-71
2022/10/29 04:58:05;;;;;;;10.45;5.05;;;14.40;79.90;;;13.02;100.00;96759.03;4870805;28;20357;-71
2022/10/29 05:00:31;;;;;;;54.83;41.22;;;14.40;80.20;;;13.01;100.00;96752.09;4886282;28;20557;-69
2022/10/29 05:02:57;;;;;;;25.45;18.95;;;14.40;80.30;;;13.01;100.00;96762.66;4858619;28;20353;-70
2022/10/29 05:05:23;;;;;;;40.33;28.20;;;14.40;80.40;;;13.00;100.00;96761.84;4886775;28;20038;-69
2022/10/29 05:07:55;;;;;;;58.22;44.85;;;14.40;80.50;;;13.00;100.00;96766.31;4856415;28;20273;-69
2022/10/29 05:10:21;;;;;;;20.73;9.82;;;14.40;80.40;;;12.99;100.00;96765.50;4856927;28;20351;-69
2022/10/29 05:12:47;;;;;;;12.50;5.65;;;14.30;80.20;;;12.96;100.00;96768.53;4836224;28;20346;-70
2022/10/29 05:15:14;;;;;;;11.50;3.63;;;14.40;80.00;;;12.94;100.00;96769.72;4854841;28;20043;-73
2022/10/29 05:17:40;;;;;;;7.97;3.45;;;14.30;80.30;;;12.92;100.00;96772.53;4853470;28;20456;-73
2022/10/29 05:20:07;;;;;;;7.10;3.22;;;14.30;80.20;;;12.89;100.00;96773.72;4869281;28;20332;-72
2022/10/29 05:22:33;;;;;;;5.28;3.15;;;14.20;80.50;;;12.86;100.00;96781.19;4836300;28;20301;-70
2022/10/29 05:24:59;;;;;;;8.85;3.58;;;14.20;80.50;;;12.85;100.00;96777.72;4853066;28;20325;-70
2022/10/29 05:27:25;;;;;;;5.10;3.53;;;14.20;80.50;;;12.84;100.00;96778.75;4884929;28;20324;-72
2022/10/29 05:29:51;;;;;;;7.32;3.65;;;14.20;80.50;;;12.81;100.00;96768.56;4852170;28;20494;-71
2022/10/29 05:32:17;;;;;;;7.82;3.28;;;14.20;80.50;;;12.78;100.00;96768.94;4888553;28;20304;-70
2022/10/29 05:34:44;;;;;;;8.40;3.90;;;14.20;80.30;;;12.75;100.00;96758.75;4883811;28;20514;-71
2022/10/29 05:37:10;;;;;;;11.45;5.38;;;14.20;80.40;;;12.76;100.00;96767.50;4849398;28;20443;-70
2022/10/29 05:39:36;;;;;;;10.23;5.20;;;14.10;80.80;;;12.76;100.00;96765.66;4850635;28;20253;-70
2022/10/29 05:42:02;;;;;;;6.68;3.97;;;14.10;80.90;;;12.76;100.00;96765.66;4851747;28;20428;-70
2022/10/29 05:44:28;;;;;;;7.63;4.10;;;14.10;80.60;;;12.74;100.00;96767.66;4846968;28;20513;-70
2022/10/29 05:46:55;;;;;;;9.30;4.15;;;14.10;80.60;;;12.72;100.00;96774.97;4844383;28;20584;-71
2022/10/29 05:49:21;;;;;;;8.88;4.35;;;14.10;80.60;;;12.70;100.00;96771.69;4861169;28;20321;-71
2022/10/29 05:51:47;;;;;;;7.63;3.92;;;14.10;80.70;;;12.69;100.00;96772.69;4864297;28;20492;-70
2022/10/29 05:54:13;;;;;;;9.30;3.88;;;14.10;80.70;;;12.67;100.00;96777.31;4831760;28;20494;-73
2022/10/29 05:56:39;;;;;;;7.75;3.50;;;14.00;80.90;;;12.67;100.00;96772.03;4851393;28;20636;-70
2022/10/29 05:59:05;;;;;;;11.70;3.60;;;14.10;80.80;;;12.66;100.00;96780.97;4882608;28;20523;-70
2022/10/29 06:01:31;;;;;;;11.80;3.33;;;14.10;80.80;;;12.66;100.00;96770.41;4834964;28;20342;-70
2022/10/29 06:04:00;;;;;;;9.40;3.38;;;14.10;81.00;;;12.67;100.00;96769.41;4842123;28;20470;-70
2022/10/29 06:06:26;;;;;;;8.25;3.80;;;14.10;80.90;;;12.68;100.00;96773.69;4832673;28;20213;-70
2022/10/29 06:08:52;;;;;;;12.70;3.53;;;14.10;81.00;;;12.71;100.00;96783.06;4857528;28;20352;-70
2022/10/29 06:11:18;;;;;;;9.70;3.53;;;14.10;81.00;;;12.71;100.00;96783.88;4847188;28;20603;-70
2022/10/29 06:13:45;;;;;;;9.20;3.58;;;14.10;80.90;;;12.72;100.00;96785.53;4842728;28;20428;-71
2022/10/29 06:16:11;;;;;;;8.15;3.88;;;14.10;80.70;;;12.73;100.00;96783.69;4846047;28;20417;-72
2022/10/29 06:18:37;;;;;;;17.55;11.23;;;14.20;79.80;;;12.73;100.00;96787.16;4880292;28;20447;-69
2022/10/29 06:21:03;;;;;;;25.10;16.60;;;14.20;80.20;;;12.77;100.00;96793.69;4851357;28;20783;-71
2022/10/29 06:23:29;;;;;;;18.55;13.57;;;14.30;79.90;;;12.81;100.00;96794.97;4836005;28;20577;-70
2022/10/29 06:25:59;;;;;;;14.95;8.27;;;14.40;80.00;;;12.86;100.00;96802.31;4852133;28;20344;-71
2022/10/29 06:28:26;;;;;;;28.42;22.63;;;14.40;80.10;;;12.89;100.00;96792.19;4855461;28;20583;-70
2022/10/29 06:30:52;;;;;;;24.40;18.20;;;14.50;80.10;;;12.94;100.00;96799.59;4875117;28;20357;-73
2022/10/29 06:33:18;;;;;;;14.10;6.85;;;14.50;79.60;;;12.98;100.00;96797.38;4853140;28;20212;-71
2022/10/29 06:35:44;;;;;;;10.77;4.40;;;14.60;78.80;;;13.01;100.00;96800.47;4855360;28;20380;-71
2022/10/29 06:38:10;;;;;;;11.45;3.25;;;14.60;78.30;;;13.06;100.00;96797.25;4853021;28;20689;-71
2022/10/29 06:40:36;;;;;;;9.02;3.92;;;14.60;76.60;;;13.10;100.00;96793.22;4849963;28;20373;-76
2022/10/29 06:43:05;;;;;;;11.75;3.85;;;14.70;77.10;;;13.15;100.00;96793.50;4864514;28;20478;-70
2022/10/29 06:45:31;;;;;;;13.70;3.50;;;14.70;76.70;;;13.19;100.00;96794.78;4895705;28;20353;-71
2022/10/29 06:47:57;;;;;;;6.38;3.45;;;14.80;76.40;;;13.20;100.00;96791.16;4856631;28;20526;-72
2022/10/29 06:50:24;;;;;;;10.35;3.60;;;14.80;76.00;;;13.26;100.00;96795.66;4837934;28;20420;-71
2022/10/29 06:52:54;;;;;;;11.70;3.33;;;14.90;76.30;;;13.32;100.00;96804.66;4838575;28;20353;-71
2022/10/29 06:55:20;;;;;;;13.40;6.18;;;15.00;76.10;;;13.37;100.00;96810.22;4869410;28;20357;-72
2022/10/29 06:57:46;;;;;;;48.03;34.33;;;15.00;76.40;;;13.44;100.00;96811.91;4849173;28;20264;-72
2022/10/29 07:00:13;;;;;;;33.50;20.13;;;15.10;76.80;;;13.49;100.00;96811.34;4851273;28;20349;-71
2022/10/29 07:02:39;;;;;;;12.20;6.18;;;15.20;77.60;;;13.54;100.00;96810.75;4866868;28;20394;-72
2022/10/29 07:05:05;;;;;;;7.75;3.78;;;15.30;77.00;;;13.58;100.00;96804.06;4887776;28;20435;-68
2022/10/29 07:07:31;;;;;;;6.80;3.35;;;15.20;76.60;;;13.63;100.00;96805.16;4880436;28;20594;-66
2022/10/29 07:09:57;;;;;;;9.20;3.40;;;15.40;76.40;;;13.72;100.00;96805.84;4894752;28;20554;-67
2022/10/29 07:12:23;;;;;;;7.60;3.35;;;15.50;75.80;;;13.79;100.00;96806.69;4876965;28;20316;-70
2022/10/29 07:14:49;;;;;;;8.43;3.60;;;15.60;75.80;;;13.88;100.00;96808.22;4869115;28;20345;-70
2022/10/29 07:17:15;;;;;;;6.30;3.33;;;15.70;75.80;;;13.99;100.00;96805.03;4840804;28;20519;-71
2022/10/29 07:19:41;;;;;;;15.68;9.23;;;15.90;75.10;;;14.10;100.00;96799.22;4851347;28;20349;-70
2022/10/29 07:22:07;;;;;;;35.58;24.30;;;16.00;75.60;;;14.20;100.00;96811.25;4850373;28;20297;-70
2022/10/29 07:24:33;;;;;;;20.85;14.88;;;16.10;75.30;;;14.28;100.00;96803.19;4875046;28;20380;-66
2022/10/29 07:27:00;;;;;;;10.10;5.18;;;16.10;75.70;;;14.34;100.00;96802.41;4868124;28;20325;-72
2022/10/29 07:29:26;;;;;;;9.88;3.55;;;16.10;74.90;;;14.41;100.00;96805.91;4839865;28;20469;-70
2022/10/29 07:31:53;;;;;;;10.30;3.50;;;16.20;74.80;;;14.46;100.00;96805.34;4861651;28;20349;-71
2022/10/29 07:34:19;;;;;;;7.10;3.47;;;16.10;74.20;;;14.50;100.00;96807.41;4848416;28;20383;-70
2022/10/29 07:36:45;;;;;;;9.02;3.65;;;16.20;73.60;;;14.55;100.00;96810.28;4861649;28;20487;-70
2022/10/29 07:39:11;;;;;;;9.80;3.47;;;16.30;73.20;;;14.61;100.00;96816.63;4856823;28;20696;-70
2022/10/29 07:41:37;;;;;;;7.05;3.42;;;16.30;73.50;;;14.64;100.00;96822.34;4855118;28;20338;-70
2022/10/29 07:44:03;;;;;;;8.40;3.70;;;16.40;73.60;;;14.68;100.00;96812.16;4876576;28;20324;-70
2022/10/29 07:46:30;;;;;;;11.00;3.40;;;16.40;73.20;;;14.73;100.00;96822.19;4862800;28;20448;-70
2022/10/29 07:48:56;;;;;;;17.42;12.50;;;16.50;73.60;;;14.77;100.00;96818.13;4844511;28;20499;-71
2022/10/29 07:51:22;;;;;;;17.60;12.95;;;16.50;74.20;;;14.79;100.00;96816.09;4857073;28;20418;-71
2022/10/29 07:53:48;;;;;;;7.82;4.10;;;16.50;73.90;;;14.78;100.00;96815.28;4842532;28;20289;-71
2022/10/29 07:56:14;;;;;;;13.43;7.70;;;16.40;73.50;;;14.78;100.00;96817.13;4865306;28;20595;-70
2022/10/29 07:58:40;;;;;;;9.25;4.20;;;16.40;74.00;;;14.79;100.00;96816.09;4856792;28;20297;-69
2022/10/29 08:01:06;;;;;;;7.80;3.10;;;16.40;73.60;;;14.78;100.00;96809.97;4871154;28;20436;-70
2022/10/29 08:03:33;;;;;;;5.35;3.08;;;16.50;73.30;;;14.82;100.00;96816.50;4873774;28;20198;-69
2022/10/29 08:05:59;;;;;;;9.85;3.58;;;16.50;73.60;;;14.84;100.00;96814.47;4847039;28;20448;-67
2022/10/29 08:08:25;;;;;;;10.45;3.83;;;16.60;73.40;;;14.87;100.00;96819.38;4880102;28;20361;-69
2022/10/29 08:10:51;;;;;;;8.27;3.60;;;16.50;73.20;;;14.90;100.00;96812.88;4856749;28;20518;-66
2022/10/29 08:13:17;;;;;;;6.03;3.40;;;16.60;72.90;;;14.95;100.00;96816.56;4857709;28;20791;-71
2022/10/29 08:15:45;;;;;;;9.77;4.07;;;16.70;73.40;;;15.01;100.00;96812.31;4859802;28;20379;-72
2022/10/29 08:18:15;;;;;;;9.85;4.00;;;16.70;71.90;;;15.07;100.00;96808.84;4920093;23;20969;-70
2022/10/29 08:20:41;;;;;;;7.93;3.47;;;16.90;71.60;;;15.14;100.00;96807.03;4920001;28;20033;-69
2022/10/29 08:23:07;;;;;;;11.38;3.65;;;17.00;71.50;;;15.20;100.00;96806.25;4950874;28;20034;-71
2022/10/29 08:25:35;;;;;;;11.52;4.07;;;17.00;70.40;;;15.26;100.00;96802.78;4946258;28;20038;-71
2022/10/29 08:28:03;;;;;;;8.82;3.60;;;17.10;70.00;;;15.33;100.00;96802.78;4932033;28;20063;-70
2022/10/29 08:30:29;;;;;;;10.68;3.33;;;17.10;69.40;;;15.42;100.00;96808.75;4929725;28;20107;-68
2022/10/29 08:32:55;;;;;;;10.48;3.65;;;17.20;69.30;;;15.51;100.00;96799.56;4945754;28;20037;-70
2022/10/29 08:35:21;;;;;;;8.68;3.42;;;17.40;70.00;;;15.59;100.00;96804.69;4914591;28;20030;-69
2022/10/29 08:37:47;;;;;;;9.68;3.60;;;17.40;69.60;;;15.66;100.00;96796.75;4911700;28;20236;-68
2022/10/29 08:40:42;;;;;;;7.43;3.25;;;17.50;69.40;;;15.78;100.00;96801.22;4931078;28;20264;-71
2022/10/29 08:43:31;;;;;;;8.95;2.55;;;17.60;69.40;;;15.90;100.00;96806.75;4946432;28;20033;-68
2022/10/29 08:45:57;;;;;;;7.30;3.20;;;17.90;69.20;;;16.01;100.00;96807.97;4966307;28;25556;-68
2022/10/29 08:48:28;;;;;;;10.20;3.15;;;18.10;68.60;;;16.14;100.00;96814.06;4963319;23;20115;-68
2022/10/29 08:51:22;;;;;;;8.57;3.25;;;18.30;68.30;;;16.31;99.55;96803.84;4996386;23;20049;-70
2022/10/29 08:53:50;;;;;;;7.88;3.63;;;18.60;66.30;;;16.45;99.88;96812.59;4916001;28;20046;-71
2022/10/29 08:56:28;;;;;;;14.32;7.28;;;18.70;64.80;;;16.61;96.95;96806.00;4965720;28;20759;-72
2022/10/29 08:59:13;;;;;;;13.25;7.15;;;18.80;64.60;;;16.77;97.05;96805.59;4889596;28;20698;-72
2022/10/29 09:01:39;;;;;;;12.80;7.00;;;19.10;64.60;;;16.88;97.90;96806.75;4877655;28;20465;-71
2022/10/29 09:04:31;;;;;;;27.55;14.70;;;19.20;64.20;;;17.03;96.87;96805.47;4837935;28;20365;-72
2022/10/29 09:07:41;;;;;;;28.63;17.15;;;19.40;64.80;;;17.18;96.28;96807.00;4841474;28;20345;-71
2022/10/29 09:10:28;;;;;;;17.00;10.43;;;19.60;64.40;;;17.35;94.15;96808.13;4861786;28;20700;-67
2022/10/29 09:13:01;;;;;;;17.42;9.27;;;20.10;62.20;;;17.50;96.56;96806.00;4868729;28;20213;-68
2022/10/29 09:15:57;;;;;;;21.85;9.23;;;20.60;60.80;;;17.77;92.27;96806.66;4872760;28;20584;-67
2022/10/29 09:18:50;;;;;;;23.77;8.90;;;21.10;59.50;;;18.13;91.04;96800.63;4884411;28;20268;-68
2022/10/29 09:21:32;;;;;;;13.43;7.80;;;22.30;56.20;;;18.47;89.92;96796.56;4868927;28;20423;-68
2022/10/29 09:24:14;;;;;;;20.30;7.63;;;23.20;53.60;;;18.94;89.31;96795.03;4885749;28;20457;-67
2022/10/29 09:26:59;;;;;;;11.95;5.85;;;24.60;50.00;;;19.25;88.04;96799.34;4867763;28;20370;-69
2022/10/29 09:30:17;;;;;;;13.95;5.82;;;24.40;50.20;;;19.69;86.61;96799.13;4869470;28;20515;-68
2022/10/29 09:33:14;;;;;;;15.30;4.28;;;25.50;48.60;;;20.25;84.30;96798.63;4868172;28;20458;-68
2022/10/29 09:35:46;;;;;;;41.33;17.38;;;27.30;44.20;;;20.70;81.67;96806.84;4855421;28;20456;-68
2022/10/29 09:38:26;;;;;;;37.55;13.32;;;27.50;41.10;;;21.12;76.73;96800.47;4832365;28;20386;-68
2022/10/29 09:40:53;;;;;;;13.38;4.90;;;28.30;39.80;;;21.54;83.20;96790.31;4870320;28;20206;-68
2022/10/29 09:43:23;;;;;;;18.15;7.18;;;29.10;39.50;;;22.02;74.60;96798.59;4892825;23;20302;-65
2022/10/29 09:46:27;;;;;;;28.58;12.35;;;30.00;36.60;;;22.66;67.43;96778.63;4866690;28;20108;-70
2022/10/29 09:49:05;;;;;;;21.92;8.98;;;31.00;34.40;;;23.22;67.98;96770.19;4877603;28;20581;-72
2022/10/29 09:51:41;;;;;;;12.68;5.70;;;32.10;32.80;;;23.74;70.29;96776.88;4881801;28;20449;-72
2022/10/29 09:54:08;;;;;;;12.90;3.53;;;32.70;32.80;;;24.29;71.84;96779.22;4872910;28;20329;-71
2022/10/29 09:56:34;;;;;;;7.03;2.78;;;34.10;30.30;;;24.92;70.56;96776.56;4849648;28;20286;-66
2022/10/29 09:59:45;;;;;;;133.43;30.50;;;35.00;29.40;;;25.76;58.16;96759.28;4960427;23;20481;-67
2022/10/29 10:02:48;;;;;;;152.75;32.55;;;35.90;28.00;;;26.49;57.48;96757.06;4940147;28;20120;-68
2022/10/29 10:05:19;;;;;;;35.38;17.60;;;36.90;27.30;;;26.98;59.33;96759.03;4970729;28;20041;-68
2022/10/29 10:08:10;;;;;;;24.60;16.83;;;37.30;26.90;;;27.43;53.94;96750.72;4957355;23;20576;-76
2022/10/29 10:11:08;;;;;;;11.77;3.78;;;37.60;26.20;;;27.86;50.95;96750.16;4910205;23;20039;-69
2022/10/29 10:13:37;;;;;;;11.80;6.50;;;37.70;25.70;;;28.29;56.95;96753.81;4990505;23;20527;-70
2022/10/29 10:16:04;;;;;;;15.13;8.15;;;38.30;25.70;;;28.67;57.23;96752.84;4919349;28;20352;-71
2022/10/29 10:18:30;;;;;;;12.35;5.03;;;38.60;25.60;;;28.95;56.97;96747.69;4859312;28;20343;-69
2022/10/29 10:21:05;;;;;;;8.77;3.15;;;38.60;25.60;;;29.26;49.29;96739.97;4910537;28;20223;-70
2022/10/29 10:23:48;;;;;;;11.55;3.38;;;38.40;25.80;;;29.35;48.74;96729.25;4898877;28;20407;-71
2022/10/29 10:26:41;;;;;;;7.13;2.90;;;37.00;27.50;;;29.32;49.35;96736.06;4868354;28;20324;-70